Calafate, Argentina
Current Conditions -  °F | °C
As of 6:00 AM on Monday 24 Nov 2014 (Local Time) from SAWG Reporting Station
Clear Clear  
Wind Chill:   Ceiling: Unl
Heat Index:   Visibility: 6mi
Dew Point:   Wind: 15mph
Humidity: 66%   Direction: 270°W
Pressure: 29.53"   Gusts: NA
Location:  50.33°S, 72.27°W
Report Text: SAWG 240900Z 27013KT CAVOK 06/00 Q1000
Loading
Personal Weather Stations






























Interactive Weather Map New forecast layout! Learn more

10-Day Weather Forecast

Advertisements
Track Severe Weather on mobile